Terminal Aerodrome Forecast
Issued by NWS

Home | Current Version | Previous Version | Text Only | Print | Product List | Glossary On
Versions: 1 2 3 4 5 6 7 8 9 10 11 12 13 14 15 16 17
778
FTUS42 KMLB 231120
TAFSUA
TAF
KSUA 231120Z 2312/2412 VRB03KT P6SM VCSH SCT025 SCT035 SCT250
      TEMPO 2312/2315 5SM SHRA BKN020
     FM231500 10009KT P6SM VCTS SCT030CB BKN100 BKN250
      TEMPO 2315/2317 3SM TSRA BKN020CB
     FM240000 13006KT P6SM VCSH SCT025 BKN100
     FM240600 14004KT P6SM VCSH SCT020 BKN250=

USA.gov is the U.S. government's official web portal to all federal, state and local government web resources and services.